Home   Weather   Spain   Jaén   Past weeks
Flag for Spain

Past Weather in Jaén, Jaén, Spain — Yesterday and Last 2 Weeks

Currently: 73 °F. Passing clouds. (Weather station: Granada / Aeropuerto, Spain). See more current weather

Past Weather in Jaén — Graph

°F

Jaén Temperature Yesterday

Maximum temperature yesterday: 73 °F (at 4:30 pm)
Minimum temperature yesterday: 50 °F (at 6:30 am)
Average temperature yesterday: 61 °F

High & Low Weather Summary for the Past Weeks

 TemperatureHumidityPressure
High93 °F (Sep 18, 6:00 pm)100% (Sep 30, 3:30 am)30.30 "Hg (Sep 30, 3:30 am)
Low45 °F (Oct 1, 6:00 am)16% (Sep 25, 5:00 pm)29.80 "Hg (Sep 25, 4:00 pm)
Average69 °F57%30.00 "Hg
* Reported Sep 16 1:00 pm — Oct 1 1:00 pm, Jaén. Weather by CustomWeather, © 2022

Note: Actual official high and low records may vary slightly from our data, if they occured in-between our weather recording intervals... More about our weather records

Jaén Weather History for the Previous 24 Hours

Scroll right to see more
 ConditionsComfort  
Time TempWeatherWind HumidityBarometerVisibility
1:00 pm
Sat, Oct 1
70 °FSunny.1 mph38%30.30 "Hg10 mi
12:30 pm66 °FSunny.1 mph46%30.30 "Hg10 mi
12:00 pm64 °FSunny.No wind46%30.30 "Hg10 mi
11:30 am63 °FSunny.No wind52%30.30 "Hg10 mi
11:00 am57 °FSunny.No wind63%30.30 "Hg10 mi
10:30 am54 °FSunny.No wind72%30.30 "Hg10 mi
10:00 am50 °FSunny.2 mph82%30.30 "Hg10 mi
9:30 am52 °FPassing clouds.No wind72%30.27 "HgN/A
9:00 am48 °FPassing clouds.1 mph82%30.27 "HgN/A
8:00 am45 °FPassing clouds.3 mph87%30.24 "HgN/A
7:30 am45 °FPassing clouds.No wind87%30.24 "HgN/A
7:00 am45 °FPassing clouds.No wind87%30.24 "HgN/A
6:30 am45 °FPassing clouds.No wind93%30.21 "HgN/A
6:00 am45 °FPassing clouds.No wind93%30.21 "HgN/A
5:00 am46 °FClear.No wind87%30.18 "Hg10 mi
4:30 am46 °FClear.No wind87%30.18 "Hg10 mi
4:00 am46 °FClear.No wind87%30.18 "Hg10 mi
3:30 am48 °FClear.No wind82%30.18 "Hg10 mi
3:00 am48 °FClear.No wind82%30.18 "Hg10 mi
1:30 am52 °FClear.1 mph72%30.18 "Hg10 mi
1:00 am54 °FClear.2 mph67%30.15 "Hg10 mi
12:30 am54 °FClear.1 mph72%30.15 "Hg10 mi
12:00 am55 °FClear.2 mph67%30.15 "Hg10 mi
11:30 pm
Fri, Sep 30
55 °FClear.2 mph67%30.15 "Hg10 mi
11:00 pm57 °FClear.2 mph63%30.15 "Hg10 mi
10:30 pm63 °FPassing clouds.3 mph45%30.12 "HgN/A
9:30 pm64 °FClear.2 mph43%30.09 "Hg10 mi
9:00 pm64 °FClear.2 mph40%30.07 "Hg10 mi
8:30 pm66 °FClear.2 mph40%30.04 "Hg10 mi
8:00 pm70 °FPassing clouds.3 mph35%30.04 "HgN/A
7:30 pm72 °FPassing clouds.3 mph31%30.01 "HgN/A
7:00 pm73 °FPassing clouds.3 mph29%30.01 "HgN/A
6:30 pm73 °FPassing clouds.6 mph29%30.01 "HgN/A
6:00 pm73 °FPassing clouds.5 mph29%29.98 "HgN/A
5:30 pm73 °FPassing clouds.6 mph27%29.98 "HgN/A
5:00 pm73 °FPassing clouds.1 mph27%29.98 "HgN/A
4:30 pm73 °FPassing clouds.5 mph25%29.98 "HgN/A
4:00 pm72 °FPassing clouds.12 mph27%29.98 "HgN/A
3:00 pm70 °FPassing clouds.14 mph29%29.98 "HgN/A
2:30 pm70 °FPassing clouds.13 mph29%29.98 "HgN/A
2:00 pm68 °FPassing clouds.13 mph33%30.01 "HgN/A
Weather by CustomWeather, © 2022

See weather overview